Time;durP1;ratioP1;P1;durP2;ratioP2;P2;SDS_P1;SDS_P2;PMS_P1;PMS_P2;Temp;Humidity;BMP_temperature;BMP_pressure;BME280_temperature;BME280_humidity;BME280_pressure;Samples;Min_cycle;Max_cycle;Signal;HPM_P1;HPM_P2
2022/02/09 00:00:42;;;;;;;15.90;10.70;;;;;;;4.59;94.09;98981.37;106163;1280;22577;-74
2022/02/09 00:03:19;;;;;;;17.30;11.40;;;;;;;4.61;94.06;98974.08;105974;1277;138399;-75
2022/02/09 00:08:12;;;;;;;16.00;11.30;;;;;;;4.63;93.88;98986.97;106117;1280;138083;-74
2022/02/09 00:10:42;;;;;;;16.70;11.60;;;;;;;4.64;93.89;98988.06;106215;1281;22731;-74
2022/02/09 00:18:38;;;;;;;13.00;9.30;;;;;;;4.62;93.93;99006.27;106356;1279;24083;-74
2022/02/09 00:21:23;;;;;;;18.20;10.40;;;;;;;4.61;93.98;99010.52;106403;1279;137986;-74
2022/02/09 00:29:32;;;;;;;15.30;10.70;;;;;;;4.62;93.89;99028.80;106578;1278;22787;-74
2022/02/09 01:38:11;;;;;;;18.10;13.90;;;;;;;4.87;94.53;99083.00;106842;1277;138421;-75
2022/02/09 01:57:18;;;;;;;18.00;12.80;;;;;;;4.99;94.10;99105.09;106507;1277;138955;-75
2022/02/09 01:59:47;;;;;;;17.30;12.50;;;;;;;5.01;94.16;99107.55;106169;1280;23429;-75
2022/02/09 02:02:13;;;;;;;15.80;11.70;;;;;;;5.03;94.25;99109.27;106007;1280;138389;-74
2022/02/09 02:04:40;;;;;;;18.70;12.10;;;;;;;5.04;94.09;99112.56;106397;1277;22579;-75
2022/02/09 02:07:18;;;;;;;18.30;12.60;;;;;;;5.05;94.08;99114.85;105842;1279;23924;-75
2022/02/09 02:09:44;;;;;;;17.20;12.60;;;;;;;5.05;94.13;99115.68;105933;1278;138494;-74
2022/02/09 02:12:18;;;;;;;18.80;12.50;;;;;;;5.06;94.08;99117.23;106017;1279;22570;-73
2022/02/09 02:14:52;;;;;;;17.40;12.80;;;;;;;5.08;94.10;99116.42;105950;1277;139073;-74
2022/02/09 02:17:37;;;;;;;15.50;12.20;;;;;;;5.09;94.06;99115.10;106359;1280;22619;-73
2022/02/09 02:20:14;;;;;;;17.70;13.40;;;;;;;5.13;94.20;99119.21;106094;1277;139348;-73
2022/02/09 02:26:00;;;;;;;15.90;12.50;;;;;;;5.16;93.95;99118.52;106067;1279;138656;-74
2022/02/09 02:31:23;;;;;;;17.50;12.60;;;;;;;5.18;93.79;99122.77;106016;1278;22573;-74
2022/02/09 02:37:33;;;;;;;18.50;13.80;;;;;;;5.17;93.80;99113.80;106170;1280;22588;-74
2022/02/09 02:39:44;;;;;;;18.70;12.90;;;;;;;5.18;93.94;99110.27;105896;1280;138915;-74
2022/02/09 02:58:42;;;;;;;14.60;11.20;;;;;;;5.25;93.40;99125.59;106667;1277;138637;-74
2022/02/09 03:14:17;;;;;;;14.70;11.20;;;;;;;5.23;93.75;99128.51;105971;1279;138615;-72
2022/02/09 03:16:54;;;;;;;15.90;12.30;;;;;;;5.20;93.75;99129.86;105853;1279;30347;-76
2022/02/09 03:22:50;;;;;;;15.30;10.50;;;;;;;5.24;93.71;99139.58;106176;1279;138470;-74
2022/02/09 03:24:56;;;;;;;13.70;11.00;;;;;;;5.25;93.79;99139.70;106076;1279;24290;-74
2022/02/09 03:43:59;;;;;;;20.40;13.70;;;;;;;5.11;93.47;99137.96;106265;1277;26326;-74
2022/02/09 03:46:43;;;;;;;16.30;12.00;;;;;;;5.07;93.35;99139.41;106060;1279;137528;-75
2022/02/09 03:51:57;;;;;;;17.70;12.40;;;;;;;4.99;93.49;99145.20;106125;1278;138485;-74
2022/02/09 03:54:31;;;;;;;18.00;13.20;;;;;;;4.97;93.53;99141.57;106409;1278;25531;-74
2022/02/09 03:57:01;;;;;;;18.50;13.90;;;;;;;4.97;93.71;99148.70;105994;1277;138007;-74
2022/02/09 03:59:33;;;;;;;17.80;13.90;;;;;;;4.97;93.83;99148.45;106309;1277;25342;-75
2022/02/09 04:02:02;;;;;;;18.90;13.90;;;;;;;4.97;93.83;99150.52;106089;1281;22667;-73
2022/02/09 04:04:28;;;;;;;20.90;15.30;;;;;;;4.97;93.78;99152.19;106266;1277;138387;-74
2022/02/09 04:06:55;;;;;;;21.30;15.00;;;;;;;4.97;93.82;99152.64;105974;1279;22563;-74
2022/02/09 04:09:27;;;;;;;20.30;13.80;;;;;;;4.98;93.76;99158.27;105856;1279;138167;-74
2022/02/09 04:38:41;;;;;;;18.50;14.00;;;;;;;4.94;93.93;99150.51;106203;1277;139357;-74
2022/02/09 04:41:21;;;;;;;17.90;13.30;;;;;;;4.92;93.88;99154.13;106249;1277;22555;-75
2022/02/09 04:47:01;;;;;;;17.20;13.50;;;;;;;4.93;94.03;99155.27;106222;1277;137935;-74
2022/02/09 04:52:12;;;;;;;19.60;13.90;;;;;;;4.96;94.07;99159.98;106120;1279;138623;-75
2022/02/09 04:54:43;;;;;;;21.30;13.50;;;;;;;4.98;94.07;99155.23;106230;1278;24410;-75
2022/02/09 04:57:54;;;;;;;17.30;13.10;;;;;;;5.00;93.97;99158.11;105896;1279;138037;-75
2022/02/09 05:22:17;;;;;;;18.40;13.20;;;;;;;4.94;94.04;99164.95;106244;1279;138506;-74
2022/02/09 05:25:16;;;;;;;19.70;14.70;;;;;;;4.92;94.10;99161.70;106411;1277;25267;-74
2022/02/09 05:30:14;;;;;;;18.60;12.90;;;;;;;4.94;94.09;99163.83;106365;1278;29468;-74
2022/02/09 05:32:41;;;;;;;17.40;13.00;;;;;;;4.94;94.09;99162.55;106075;1278;138873;-74
2022/02/09 05:35:08;;;;;;;18.40;12.20;;;;;;;4.94;94.06;99169.44;106228;1277;22691;-75
2022/02/09 05:37:35;;;;;;;19.00;13.60;;;;;;;4.93;94.20;99165.55;106267;1277;22711;-75
2022/02/09 05:40:01;;;;;;;19.90;13.80;;;;;;;4.93;94.17;99160.58;106043;1279;138582;-75
2022/02/09 05:42:28;;;;;;;17.50;12.90;;;;;;;4.93;94.11;99166.48;106322;1277;22572;-75
2022/02/09 05:44:54;;;;;;;19.10;13.30;;;;;;;4.93;94.14;99171.70;105927;1280;138635;-75
2022/02/09 05:50:15;;;;;;;20.10;13.90;;;;;;;4.90;94.10;99174.86;106468;1277;22605;-74
2022/02/09 05:58:08;;;;;;;14.80;11.20;;;;;;;4.87;94.34;99183.97;106217;1280;138445;-74
2022/02/09 06:00:35;;;;;;;13.60;10.50;;;;;;;4.87;94.40;99187.54;106243;1278;22712;-74
2022/02/09 06:03:01;;;;;;;18.60;11.70;;;;;;;4.87;94.33;99190.85;106195;1276;138084;-74
2022/02/09 06:05:31;;;;;;;16.00;11.30;;;;;;;4.86;94.36;99194.16;106135;1278;22605;-74
2022/02/09 06:07:57;;;;;;;17.60;11.90;;;;;;;4.86;94.45;99200.11;107176;1277;24574;-74
2022/02/09 06:10:28;;;;;;;17.70;10.50;;;;;;;4.86;94.41;99202.10;106115;1277;138623;-74
2022/02/09 06:20:58;;;;;;;13.10;9.90;;;;;;;4.85;94.44;99195.77;106544;1277;138947;-74
2022/02/09 06:23:26;;;;;;;11.30;9.10;;;;;;;4.84;94.58;99193.20;106190;1280;22573;-74
2022/02/09 06:25:52;;;;;;;11.00;9.20;;;;;;;4.85;94.55;99190.04;106963;1277;24398;-74
2022/02/09 06:28:19;;;;;;;11.40;8.50;;;;;;;4.86;94.64;99194.80;106275;1276;138221;-74
2022/02/09 06:30:45;;;;;;;12.30;8.60;;;;;;;4.89;94.83;99198.61;106081;1281;23965;-74
2022/02/09 06:33:12;;;;;;;13.50;9.80;;;;;;;4.91;94.78;99203.11;105757;1281;138394;-74
2022/02/09 06:35:38;;;;;;;15.30;9.00;;;;;;;4.93;94.71;99209.15;106580;1281;22594;-74
2022/02/09 06:38:05;;;;;;;14.80;9.90;;;;;;;4.93;94.67;99207.29;106192;1278;22560;-74
2022/02/09 06:40:31;;;;;;;12.50;9.20;;;;;;;4.95;94.63;99203.13;106525;1278;138269;-74
2022/02/09 06:42:57;;;;;;;11.70;8.70;;;;;;;4.95;94.71;99205.03;107013;1276;23279;-74
2022/02/09 06:45:28;;;;;;;11.80;8.50;;;;;;;4.95;94.67;99208.31;106710;1277;137652;-74
2022/02/09 06:47:54;;;;;;;12.40;10.30;;;;;;;4.94;94.73;99213.70;106038;1280;24221;-74
2022/02/09 06:50:29;;;;;;;13.70;10.00;;;;;;;4.94;94.62;99212.20;105971;1277;138658;-74
2022/02/09 06:53:13;;;;;;;12.40;9.60;;;;;;;4.94;94.54;99207.67;106235;1278;23971;-74
2022/02/09 07:01:06;;;;;;;16.50;12.00;;;;;;;4.98;94.91;99209.02;106048;1277;22582;-73
2022/02/09 07:03:33;;;;;;;15.40;11.90;;;;;;;5.00;94.90;99209.02;106254;1278;138391;-74
2022/02/09 07:06:00;;;;;;;15.60;11.80;;;;;;;5.01;94.73;99210.20;106285;1280;22706;-74
2022/02/09 07:08:27;;;;;;;17.50;13.10;;;;;;;5.00;94.72;99208.31;106031;1281;138772;-74
2022/02/09 07:10:54;;;;;;;15.50;12.20;;;;;;;5.01;94.82;99215.68;106181;1281;23311;-74
2022/02/09 07:13:20;;;;;;;18.90;12.90;;;;;;;5.02;94.95;99211.95;106048;1281;22629;-74
2022/02/09 07:15:50;;;;;;;18.50;13.10;;;;;;;5.04;94.88;99211.73;106081;1281;138237;-74
2022/02/09 07:18:17;;;;;;;20.90;15.30;;;;;;;5.05;94.88;99219.16;106447;1281;23854;-74
2022/02/09 07:23:27;;;;;;;21.00;14.30;;;;;;;5.10;94.69;99220.19;106088;1278;24219;-74
2022/02/09 07:26:05;;;;;;;21.50;14.50;;;;;;;5.13;94.87;99220.65;106339;1278;24242;-74
2022/02/09 07:28:33;;;;;;;21.90;15.40;;;;;;;5.16;94.89;99221.63;106374;1278;137898;-74
2022/02/09 07:31:00;;;;;;;28.40;17.00;;;;;;;5.17;94.94;99219.89;106203;1281;22589;-74
2022/02/09 07:33:27;;;;;;;29.20;18.60;;;;;;;5.21;94.84;99210.79;106031;1281;138859;-74
2022/02/09 07:35:55;;;;;;;26.10;17.80;;;;;;;5.24;94.64;99217.55;106344;1277;22705;-74
2022/02/09 07:38:21;;;;;;;26.10;18.30;;;;;;;5.27;94.77;99223.08;105764;1278;139474;-74
2022/02/09 07:40:51;;;;;;;26.30;17.30;;;;;;;5.31;94.70;99226.75;106409;1278;25506;-74
2022/02/09 07:43:25;;;;;;;26.90;18.70;;;;;;;5.34;94.87;99224.96;106223;1277;22752;-74
2022/02/09 07:46:57;;;;;;;26.40;17.90;;;;;;;5.37;94.64;99222.20;105944;1277;138323;-74
2022/02/09 07:51:40;;;;;;;25.70;15.20;;;;;;;5.44;94.56;99214.88;106343;1277;138272;-74
2022/02/09 07:54:08;;;;;;;25.30;18.10;;;;;;;5.46;94.46;99214.66;106454;1277;22560;-74
2022/02/09 07:56:38;;;;;;;31.90;18.20;;;;;;;5.47;94.62;99215.50;106320;1277;140171;-74
2022/02/09 07:59:06;;;;;;;26.90;16.50;;;;;;;5.50;94.50;99219.06;106199;1277;22564;-74
2022/02/09 08:01:33;;;;;;;17.30;13.30;;;;;;;5.53;94.38;99215.59;106459;1277;22547;-74
2022/02/09 08:04:00;;;;;;;23.40;14.10;;;;;;;5.53;94.31;99218.45;105843;1281;138764;-74
2022/02/09 08:06:27;;;;;;;19.30;13.10;;;;;;;5.54;94.43;99219.38;106222;1280;22657;-74
2022/02/09 08:08:57;;;;;;;20.10;13.60;;;;;;;5.53;94.36;99219.01;106180;1281;138259;-74
2022/02/09 08:11:29;;;;;;;20.10;13.50;;;;;;;5.54;94.23;99213.77;106222;1281;22623;-74
2022/02/09 08:30:47;;;;;;;14.50;10.20;;;;;;;5.81;94.15;99219.41;106134;1281;25288;-74
2022/02/09 08:33:17;;;;;;;15.40;10.60;;;;;;;5.86;94.25;99220.95;106313;1277;138253;-74
2022/02/09 08:35:49;;;;;;;16.80;10.50;;;;;;;5.90;94.35;99223.77;106136;1277;24236;-74
2022/02/09 08:38:16;;;;;;;12.60;9.10;;;;;;;5.96;94.09;99226.75;106173;1277;24396;-75
2022/02/09 08:40:44;;;;;;;13.00;8.40;;;;;;;5.96;93.97;99227.00;106285;1277;138290;-74
2022/02/09 08:43:11;;;;;;;10.10;7.80;;;;;;;5.99;93.92;99226.36;106093;1277;22566;-74
2022/02/09 08:45:42;;;;;;;10.80;8.20;;;;;;;5.99;93.74;99230.62;106070;1277;138004;-74
2022/02/09 08:48:09;;;;;;;13.60;9.10;;;;;;;5.99;93.89;99235.73;106080;1280;25330;-75
2022/02/09 08:50:36;;;;;;;14.10;9.50;;;;;;;6.00;93.85;99238.69;106041;1278;138586;-74
2022/02/09 08:53:04;;;;;;;10.40;7.80;;;;;;;6.00;93.78;99239.64;106176;1277;22767;-74
2022/02/09 08:55:32;;;;;;;11.30;7.30;;;;;;;6.03;93.77;99240.79;106025;1277;22554;-73
2022/02/09 08:57:58;;;;;;;11.40;7.10;;;;;;;6.04;93.69;99239.77;106034;1278;137934;-73
2022/02/09 09:00:31;;;;;;;11.80;8.10;;;;;;;6.04;93.73;99239.01;106114;1277;22577;-73
2022/02/09 09:03:10;;;;;;;12.40;8.30;;;;;;;6.04;93.68;99237.55;106576;1277;138585;-74
2022/02/09 09:05:47;;;;;;;11.20;7.10;;;;;;;6.06;93.70;99237.90;106283;1277;22584;-74
2022/02/09 09:08:33;;;;;;;11.20;7.40;;;;;;;6.07;93.66;99236.98;105846;1278;22586;-74
2022/02/09 09:42:05;;;;;;;7.00;5.30;;;;;;;6.27;93.49;99236.77;106003;1277;138150;-74
2022/02/09 10:01:17;;;;;;;7.90;5.80;;;;;;;6.44;93.05;99230.46;105701;1279;22586;-76
2022/02/09 10:38:28;;;;;;;10.10;6.60;;;;;;;6.96;91.65;99207.50;105945;1278;25501;-74
2022/02/09 10:41:07;;;;;;;10.90;6.80;;;;;;;6.98;92.19;99202.48;106059;1279;138141;-74
2022/02/09 10:43:35;;;;;;;;;;;;;;;7.03;92.16;99201.65;106279;1278;22543;-74
2022/02/09 10:46:20;;;;;;;8.20;5.80;;;;;;;7.06;91.96;99194.16;106203;1277;124435;-75
2022/02/09 10:48:55;;;;;;;13.90;7.30;;;;;;;7.10;92.03;99192.92;106277;1277;25471;-74
2022/02/09 10:54:16;;;;;;;12.30;7.40;;;;;;;7.15;91.75;99186.77;106215;1277;23119;-74
2022/02/09 10:56:57;;;;;;;10.10;7.30;;;;;;;7.18;92.02;99182.65;106621;1279;24440;-74
2022/02/09 10:59:29;;;;;;;11.30;7.60;;;;;;;7.19;91.34;99182.45;106187;1277;138663;-74
2022/02/09 11:02:00;;;;;;;10.90;7.50;;;;;;;7.20;91.29;99181.83;106462;1277;24306;-74
2022/02/09 11:04:28;;;;;;;12.40;8.40;;;;;;;7.24;91.19;99179.16;106782;1277;138513;-74
2022/02/09 11:06:55;;;;;;;9.50;7.40;;;;;;;7.28;91.43;99173.17;106510;1277;22558;-74
2022/02/09 11:09:23;;;;;;;15.60;10.20;;;;;;;7.32;91.40;99173.09;106502;1280;137505;-74
2022/02/09 11:11:51;;;;;;;15.60;8.90;;;;;;;7.38;91.37;99168.30;106349;1277;22688;-74
2022/02/09 11:14:22;;;;;;;11.40;8.30;;;;;;;7.41;91.09;99166.43;106778;1277;24086;-74
2022/02/09 11:16:55;;;;;;;14.20;9.50;;;;;;;7.43;90.83;99171.22;107190;1277;22580;-74
2022/02/09 11:19:40;;;;;;;14.20;9.60;;;;;;;7.41;90.60;99175.02;106562;1277;22645;-74
2022/02/09 11:22:10;;;;;;;14.50;8.70;;;;;;;7.38;90.43;99174.89;107287;1277;138193;-74
2022/02/09 11:24:44;;;;;;;11.90;9.20;;;;;;;7.37;90.45;99172.60;107317;1278;25328;-74
2022/02/09 11:27:37;;;;;;;17.70;9.90;;;;;;;7.38;90.49;99177.59;107388;1277;22537;-74
2022/02/09 11:30:14;;;;;;;14.40;9.30;;;;;;;7.42;90.85;99171.88;107033;1277;25319;-74
2022/02/09 11:33:02;;;;;;;15.70;9.20;;;;;;;7.44;90.40;99173.84;106838;1277;25382;-74
2022/02/09 11:35:41;;;;;;;11.20;8.90;;;;;;;7.44;90.67;99166.54;107312;1277;138541;-74
2022/02/09 11:38:17;;;;;;;10.20;7.50;;;;;;;7.42;90.06;99160.30;106405;1276;33030;-74
2022/02/09 11:46:37;;;;;;;12.60;9.40;;;;;;;7.34;89.92;99171.55;106471;1276;138100;-74
2022/02/09 11:58:02;;;;;;;12.60;9.80;;;;;;;7.26;90.11;99167.91;106180;1276;22575;-75
2022/02/09 12:11:30;;;;;;;;;;;;;;;7.25;89.81;99165.99;105721;1277;137654;-74
2022/02/09 12:14:01;;;;;;;11.10;8.20;;;;;;;7.25;90.17;99171.05;106070;1276;22580;-74
2022/02/09 12:16:51;;;;;;;12.60;9.40;;;;;;;7.24;90.16;99169.02;106484;1276;138154;-74
2022/02/09 12:19:30;;;;;;;17.00;10.70;;;;;;;7.23;89.94;99166.66;106474;1277;31164;-74
2022/02/09 12:22:16;;;;;;;18.20;11.70;;;;;;;7.25;90.16;99166.95;106857;1277;22694;-76
2022/02/09 12:24:44;;;;;;;18.20;10.40;;;;;;;7.27;90.09;99165.91;106025;1277;137940;-74
2022/02/09 12:27:12;;;;;;;17.80;10.90;;;;;;;7.28;90.09;99165.96;106280;1277;23978;-74
2022/02/09 12:29:44;;;;;;;15.10;10.20;;;;;;;7.28;90.11;99163.33;105852;1279;137868;-74
2022/02/09 12:32:16;;;;;;;16.00;11.00;;;;;;;7.28;89.73;99162.98;106396;1276;22715;-74
2022/02/09 12:34:54;;;;;;;15.10;10.00;;;;;;;7.29;90.05;99156.70;105942;1279;138615;-74
2022/02/09 12:37:25;;;;;;;19.30;11.20;;;;;;;7.32;90.28;99159.16;105951;1278;22601;-74
2022/02/09 12:40:01;;;;;;;15.60;10.50;;;;;;;7.35;89.96;99156.88;106157;1277;22895;-74
2022/02/09 12:42:33;;;;;;;16.20;11.40;;;;;;;7.37;90.07;99151.00;105872;1277;137966;-74
2022/02/09 12:45:19;;;;;;;14.90;10.30;;;;;;;7.39;90.12;99154.33;105977;1277;22557;-74
2022/02/09 12:47:52;;;;;;;15.90;9.70;;;;;;;7.40;90.13;99155.92;105962;1277;138571;-74
2022/02/09 12:50:30;;;;;;;15.40;9.60;;;;;;;7.40;89.76;99149.52;105972;1278;24225;-74
2022/02/09 12:53:02;;;;;;;14.50;9.40;;;;;;;7.38;89.87;99148.38;105980;1279;137979;-74
2022/02/09 12:55:34;;;;;;;15.70;11.40;;;;;;;7.34;89.94;99147.41;106138;1277;25937;-75
2022/02/09 12:58:05;;;;;;;15.40;10.70;;;;;;;7.35;90.18;99148.54;106126;1277;24228;-75
2022/02/09 13:00:34;;;;;;;15.00;9.50;;;;;;;7.37;90.53;99147.58;105869;1277;138774;-75
2022/02/09 13:03:04;;;;;;;15.10;9.90;;;;;;;7.40;90.62;99145.38;105972;1277;24230;-74
2022/02/09 13:05:31;;;;;;;14.50;10.20;;;;;;;7.44;90.66;99147.21;106159;1277;137506;-75
2022/02/09 13:08:03;;;;;;;16.50;12.10;;;;;;;7.47;91.19;99146.96;106005;1277;24486;-75
2022/02/09 13:10:32;;;;;;;18.00;11.20;;;;;;;7.51;90.78;99147.10;105859;1279;138560;-75
2022/02/09 13:13:06;;;;;;;15.40;10.50;;;;;;;7.52;90.95;99148.80;105932;1279;24239;-74
2022/02/09 13:15:43;;;;;;;12.20;9.50;;;;;;;7.56;90.82;99148.55;106133;1277;22711;-75
2022/02/09 14:56:12;;;;;;;17.40;10.90;;;;;;;7.54;87.85;99157.93;106348;1277;23927;-75
2022/02/09 14:59:00;;;;;;;21.10;11.90;;;;;;;7.51;88.07;99152.35;106291;1277;24223;-75
2022/02/09 15:01:37;;;;;;;20.20;11.80;;;;;;;7.48;88.07;99153.59;106093;1277;137790;-75
2022/02/09 15:22:44;;;;;;;20.70;11.80;;;;;;;7.09;88.74;99165.96;105944;1277;25340;-74
2022/02/09 15:25:17;;;;;;;;;;;;;;;7.04;88.70;99166.66;105969;1277;137980;-74
2022/02/09 15:27:44;;;;;;;21.90;12.90;;;;;;;7.00;88.77;99164.77;105862;1280;22555;-74
2022/02/09 15:30:11;;;;;;;22.50;13.30;;;;;;;6.96;89.28;99167.09;105898;1277;137996;-77
2022/02/09 15:32:43;;;;;;;24.10;14.70;;;;;;;6.94;89.22;99164.52;105773;1278;22585;-77
2022/02/09 15:35:17;;;;;;;20.20;13.00;;;;;;;6.93;89.07;99167.00;105806;1277;22714;-75
2022/02/09 15:40:31;;;;;;;20.20;13.00;;;;;;;6.88;88.47;99159.70;106114;1276;22704;-75
2022/02/09 15:44:02;;;;;;;19.00;12.30;;;;;;;6.85;88.49;99158.16;105493;1278;138076;-74
2022/02/09 15:59:44;;;;;;;19.90;11.80;;;;;;;6.74;87.96;99156.23;105533;1279;139332;-74
2022/02/09 16:10:39;;;;;;;17.00;10.70;;;;;;;6.68;87.16;99155.89;106150;1277;22569;-74
2022/02/09 16:25:19;;;;;;;20.40;13.30;;;;;;;6.59;87.47;99154.55;106014;1277;138084;-74
2022/02/09 16:48:26;;;;;;;23.70;14.00;;;;;;;6.50;86.79;99154.44;106483;1277;137649;-74
2022/02/09 16:50:53;;;;;;;18.60;11.40;;;;;;;6.50;86.88;99151.77;106769;1277;22540;-75
2022/02/09 16:53:42;;;;;;;20.30;12.20;;;;;;;6.50;86.74;99153.44;106247;1277;24364;-74
2022/02/09 16:56:25;;;;;;;22.80;13.90;;;;;;;6.51;86.75;99147.16;106260;1278;138053;-74
2022/02/09 17:18:45;;;;;;;20.30;12.60;;;;;;;6.50;86.49;99152.82;106226;1277;25378;-74
2022/02/09 17:21:12;;;;;;;24.00;14.60;;;;;;;6.51;86.26;99159.26;106210;1278;23394;-74
2022/02/09 17:23:40;;;;;;;20.90;12.80;;;;;;;6.50;86.28;99157.69;106788;1277;22616;-74
2022/02/09 17:26:12;;;;;;;23.60;14.10;;;;;;;6.49;86.49;99152.10;106758;1280;138459;-74
2022/02/09 17:28:44;;;;;;;20.70;13.90;;;;;;;6.48;86.40;99143.70;106645;1277;24229;-74
2022/02/09 17:31:24;;;;;;;21.30;12.20;;;;;;;6.47;85.99;99139.31;106213;1277;138416;-74
2022/02/09 17:53:50;;;;;;;23.30;14.40;;;;;;;6.40;86.09;99149.42;106246;1277;23735;-74
2022/02/09 17:56:22;;;;;;;22.80;14.70;;;;;;;6.37;85.96;99151.79;106705;1277;138955;-74
2022/02/09 17:58:53;;;;;;;22.40;13.20;;;;;;;6.37;86.20;99158.13;106756;1279;22576;-74
2022/02/09 18:01:21;;;;;;;19.40;12.70;;;;;;;6.37;86.24;99162.50;106343;1277;138104;-74
2022/02/09 18:03:48;;;;;;;19.40;12.00;;;;;;;6.37;86.33;99169.55;106288;1279;22726;-74
2022/02/09 18:06:23;;;;;;;21.70;13.00;;;;;;;6.36;86.57;99164.73;106357;1277;139126;-74
2022/02/09 18:29:10;;;;;;;19.20;12.00;;;;;;;6.24;88.16;99159.80;106477;1277;22570;-74
2022/02/09 18:31:14;;;;;;;22.70;14.10;;;;;;;6.20;88.47;99159.83;106160;1277;139037;-75
2022/02/09 18:34:04;;;;;;;31.90;15.60;;;;;;;6.17;88.69;99161.92;106529;1277;22631;-76
2022/02/09 18:45:58;;;;;;;17.30;9.90;;;;;;;6.15;89.14;99160.67;106599;1278;22712;-73
2022/02/09 19:02:34;;;;;;;17.00;12.20;;;;;;;5.97;89.94;99172.16;104966;1290;136950;-74
2022/02/09 19:05:54;;;;;;;17.00;11.70;;;;;;;5.93;90.06;99169.18;105456;1289;293515;-74
2022/02/09 19:28:36;;;;;;;13.50;8.30;;;;;;;5.65;90.12;99178.99;105766;1287;23451;-74
2022/02/09 19:30:53;;;;;;;15.30;9.20;;;;;;;5.61;89.95;99174.15;106248;1287;137152;-73
2022/02/09 19:48:17;;;;;;;16.90;11.20;;;;;;;5.68;90.27;99187.55;106656;1283;137550;-73
2022/02/09 19:51:06;;;;;;;16.90;10.60;;;;;;;5.70;90.21;99191.21;106627;1281;22657;-74
2022/02/09 19:56:22;;;;;;;18.20;13.10;;;;;;;5.70;89.96;99184.10;106167;1280;137305;-74
2022/02/09 19:59:00;;;;;;;18.20;12.80;;;;;;;5.74;90.05;99181.35;106474;1280;25757;-74
2022/02/09 20:01:39;;;;;;;17.00;12.20;;;;;;;5.76;90.00;99181.96;106211;1280;137193;-74
2022/02/09 20:04:19;;;;;;;17.30;11.80;;;;;;;5.76;89.57;99187.94;106261;1280;23385;-74
2022/02/09 20:06:58;;;;;;;18.00;10.80;;;;;;;5.74;89.42;99187.34;105974;1283;137435;-74
2022/02/09 20:09:34;;;;;;;27.20;13.10;;;;;;;5.72;89.13;99186.33;106289;1280;24346;-74
2022/02/09 20:12:21;;;;;;;17.40;9.50;;;;;;;5.70;88.72;99196.63;106229;1284;137936;-74
2022/02/09 20:14:56;;;;;;;13.00;8.40;;;;;;;5.67;88.35;99195.92;106286;1281;22550;-74
2022/02/09 20:17:28;;;;;;;15.30;9.30;;;;;;;5.64;88.05;99196.15;106375;1280;24369;-74
2022/02/09 20:20:07;;;;;;;14.10;9.10;;;;;;;5.61;88.02;99200.16;106285;1280;137082;-74
2022/02/09 20:22:45;;;;;;;15.00;10.00;;;;;;;5.59;88.09;99197.85;106220;1281;22611;-74
2022/02/09 20:25:20;;;;;;;13.70;9.00;;;;;;;5.58;87.86;99201.35;106174;1281;137638;-74
2022/02/09 20:28:02;;;;;;;18.30;10.40;;;;;;;5.57;87.79;99201.41;106166;1283;24190;-74
2022/02/09 20:30:57;;;;;;;18.20;10.50;;;;;;;5.55;87.79;99203.05;105986;1282;137072;-74
2022/02/09 20:33:49;;;;;;;16.80;11.20;;;;;;;5.53;87.79;99201.33;106377;1281;22707;-74
2022/02/09 20:36:20;;;;;;;15.10;10.90;;;;;;;5.51;87.54;99200.65;106458;1281;138296;-74
2022/02/09 20:38:56;;;;;;;16.10;11.10;;;;;;;5.50;87.35;99198.81;106281;1283;30531;-74
2022/02/09 20:41:40;;;;;;;18.00;11.80;;;;;;;5.49;87.27;99198.73;106117;1283;23263;-74
2022/02/09 20:44:39;;;;;;;17.50;10.20;;;;;;;5.47;87.31;99194.10;105856;1283;137228;-74
2022/02/09 20:47:12;;;;;;;19.70;12.30;;;;;;;5.46;87.29;99197.13;106078;1280;22570;-74
2022/02/09 20:50:01;;;;;;;19.80;11.00;;;;;;;5.46;87.10;99199.83;105803;1281;137992;-74
2022/02/09 20:52:44;;;;;;;19.80;11.30;;;;;;;5.46;86.95;99196.78;106976;1283;25526;-74
2022/02/09 20:55:23;;;;;;;19.30;11.80;;;;;;;5.45;86.97;99195.45;106099;1281;136932;-74
2022/02/09 20:58:05;;;;;;;17.90;10.90;;;;;;;5.43;86.94;99193.64;105908;1283;22716;-74
2022/02/09 21:00:44;;;;;;;15.50;9.60;;;;;;;5.42;86.85;99190.02;105237;1282;138485;-74
2022/02/09 21:06:27;;;;;;;20.10;10.50;;;;;;;5.43;86.59;99185.21;106032;1283;22746;-74
2022/02/09 21:16:22;;;;;;;15.80;9.60;;;;;;;5.39;86.15;99174.23;106387;1281;22580;-75
2022/02/09 21:19:14;;;;;;;18.40;10.00;;;;;;;5.39;86.03;99172.28;106425;1281;25503;-75
2022/02/09 21:31:07;;;;;;;14.00;8.60;;;;;;;5.37;85.46;99171.27;106101;1283;25623;-76
2022/02/09 21:53:02;;;;;;;43.70;15.10;;;;;;;5.29;84.18;99185.71;105888;1283;137473;-75
2022/02/09 21:55:56;;;;;;;34.00;14.00;;;;;;;5.29;83.97;99181.80;105934;1283;25382;-75
2022/02/09 22:28:02;;;;;;;33.60;13.80;;;;;;;5.20;83.27;99172.31;106100;1283;137657;-74
2022/02/09 22:54:42;;;;;;;18.90;9.50;;;;;;;5.13;82.76;99153.20;105126;1287;936806;-74
2022/02/09 22:57:45;;;;;;;19.70;10.20;;;;;;;5.13;82.71;99150.81;105218;1287;137497;-74
2022/02/09 23:00:51;;;;;;;22.30;11.40;;;;;;;5.14;82.72;99153.98;105394;1287;24398;-74
2022/02/09 23:10:46;;;;;;;27.00;13.40;;;;;;;5.13;82.32;99148.52;105153;1290;137257;-74
2022/02/09 23:13:25;;;;;;;28.70;12.70;;;;;;;5.13;82.39;99146.66;105247;1290;22634;-74
2022/02/09 23:54:47;;;;;;;18.70;9.80;;;;;;;4.97;81.84;99118.55;104827;1291;22564;-74
